createdAt,value
2022-10-19T00:01:28.473Z,9.50
2022-10-19T00:03:56.955Z,9.50
2022-10-19T00:06:30.232Z,9.50
2022-10-19T00:09:09.339Z,9.50
2022-10-19T00:11:39.554Z,9.40
2022-10-19T00:14:07.414Z,9.30
2022-10-19T00:16:38.840Z,9.30
2022-10-19T00:19:09.542Z,9.20
2022-10-19T00:21:36.522Z,9.10
2022-10-19T00:24:03.759Z,9.10
2022-10-19T00:26:30.743Z,9.10
2022-10-19T00:29:00.731Z,9.10
2022-10-19T00:31:28.002Z,9.10
2022-10-19T00:33:57.379Z,9.10
2022-10-19T00:36:35.999Z,9.00
2022-10-19T00:39:04.736Z,8.90
2022-10-19T00:41:35.433Z,8.90
2022-10-19T00:44:15.908Z,8.80
2022-10-19T00:46:46.017Z,8.80
2022-10-19T00:49:45.637Z,8.70
2022-10-19T00:52:19.456Z,8.70
2022-10-19T00:54:48.568Z,8.70
2022-10-19T00:57:16.204Z,8.70
2022-10-19T00:59:45.647Z,8.70
2022-10-19T01:02:13.298Z,8.60
2022-10-19T01:04:45.645Z,8.60
2022-10-19T01:07:13.598Z,8.60
2022-10-19T01:09:40.673Z,8.60
2022-10-19T01:12:10.685Z,8.60
2022-10-19T01:14:49.620Z,8.60
2022-10-19T01:17:40.092Z,8.60
2022-10-19T01:20:43.666Z,8.60
2022-10-19T01:23:44.452Z,8.60
2022-10-19T01:26:34.668Z,8.60
2022-10-19T01:29:39.361Z,8.60
2022-10-19T01:32:20.963Z,8.50
2022-10-19T01:35:01.828Z,8.50
2022-10-19T01:37:46.559Z,8.60
2022-10-19T01:40:31.034Z,8.60
2022-10-19T01:43:01.234Z,8.60
2022-10-19T01:45:41.418Z,8.50
2022-10-19T01:48:15.624Z,8.50
2022-10-19T01:50:52.257Z,8.40
2022-10-19T01:53:20.782Z,8.40
2022-10-19T01:55:51.923Z,8.40
2022-10-19T01:58:24.911Z,8.30
2022-10-19T02:00:54.774Z,8.30
2022-10-19T02:03:23.214Z,8.40
2022-10-19T02:05:52.673Z,8.30
2022-10-19T02:08:30.240Z,8.30
2022-10-19T02:10:59.297Z,8.30
2022-10-19T02:13:28.068Z,8.30
2022-10-19T02:15:58.116Z,8.40
2022-10-19T02:18:31.545Z,8.40
2022-10-19T02:21:00.647Z,8.50
2022-10-19T02:23:28.080Z,8.50
2022-10-19T02:25:56.823Z,8.50
2022-10-19T02:31:00.224Z,8.50
2022-10-19T02:33:28.852Z,8.50
2022-10-19T02:35:57.047Z,8.40
2022-10-19T02:38:24.987Z,8.40
2022-10-19T02:41:14.981Z,8.40
2022-10-19T02:43:44.779Z,8.40
2022-10-19T02:46:25.553Z,8.40
2022-10-19T02:48:54.351Z,8.50
2022-10-19T02:51:39.105Z,8.40
2022-10-19T02:54:07.951Z,8.40
2022-10-19T02:56:35.480Z,8.40
2022-10-19T02:59:04.768Z,8.40
2022-10-19T03:01:31.858Z,8.40
2022-10-19T03:03:58.817Z,8.30
2022-10-19T03:06:25.900Z,8.40
2022-10-19T03:08:53.047Z,8.40
2022-10-19T03:11:20.243Z,8.30
2022-10-19T03:16:19.073Z,8.20
2022-10-19T03:18:48.659Z,8.20
2022-10-19T03:21:15.729Z,8.20
2022-10-19T03:23:42.637Z,8.10
2022-10-19T03:26:15.018Z,8.10
2022-10-19T03:28:41.995Z,8.10
2022-10-19T03:31:09.048Z,8.20
2022-10-19T03:33:35.935Z,8.20
2022-10-19T03:36:24.707Z,8.20
2022-10-19T03:38:57.203Z,8.20
2022-10-19T03:41:27.171Z,8.20
2022-10-19T03:43:54.329Z,8.20
2022-10-19T03:46:21.533Z,8.20
2022-10-19T03:48:49.062Z,8.10
2022-10-19T03:51:20.077Z,8.10
2022-10-19T03:53:48.489Z,8.00
2022-10-19T03:56:19.565Z,7.90
2022-10-19T03:58:55.373Z,7.90
2022-10-19T04:01:25.190Z,8.00
2022-10-19T04:04:01.057Z,8.00
2022-10-19T04:06:35.939Z,8.00
2022-10-19T04:09:05.509Z,8.00
2022-10-19T04:11:34.959Z,7.90
2022-10-19T04:14:03.246Z,7.90
2022-10-19T04:16:31.304Z,7.90
2022-10-19T04:18:58.808Z,7.90
2022-10-19T04:21:34.037Z,7.90
2022-10-19T04:24:13.173Z,7.90
2022-10-19T04:26:42.745Z,7.90
2022-10-19T04:29:10.746Z,7.80
2022-10-19T04:31:39.614Z,7.80
2022-10-19T04:41:04.889Z,7.80
2022-10-19T04:43:32.292Z,7.60
2022-10-19T04:46:07.035Z,7.60
2022-10-19T04:48:35.212Z,7.60
2022-10-19T04:51:02.508Z,7.50
2022-10-19T04:53:29.822Z,7.50
2022-10-19T04:55:56.888Z,7.50
2022-10-19T04:58:24.105Z,7.50
2022-10-19T05:00:51.138Z,7.50
2022-10-19T05:03:18.320Z,7.60
2022-10-19T05:05:45.186Z,7.60
2022-10-19T05:08:12.164Z,7.70
2022-10-19T05:10:39.241Z,7.70
2022-10-19T05:13:07.505Z,7.70
2022-10-19T05:15:34.488Z,7.70
2022-10-19T05:18:01.643Z,7.70
2022-10-19T05:20:28.751Z,7.70
2022-10-19T05:22:58.258Z,7.70
2022-10-19T05:25:25.118Z,7.60
2022-10-19T05:27:53.306Z,7.70
2022-10-19T05:30:24.347Z,7.70
2022-10-19T05:32:51.294Z,7.60
2022-10-19T05:35:21.541Z,7.60
2022-10-19T05:37:53.791Z,7.60
2022-10-19T05:40:20.846Z,7.60
2022-10-19T05:42:47.781Z,7.60
2022-10-19T05:45:14.720Z,7.70
2022-10-19T05:47:41.584Z,7.70
2022-10-19T05:50:09.059Z,7.70
2022-10-19T05:52:35.957Z,7.70
2022-10-19T05:55:02.858Z,7.60
2022-10-19T05:57:33.316Z,7.60
2022-10-19T06:00:00.655Z,7.60
2022-10-19T06:02:27.544Z,7.60
2022-10-19T06:04:54.680Z,7.50
2022-10-19T06:07:21.758Z,7.60
2022-10-19T06:09:48.569Z,7.50
2022-10-19T06:12:16.366Z,7.50
2022-10-19T06:14:43.544Z,7.60
2022-10-19T06:17:10.850Z,7.50
2022-10-19T06:19:37.999Z,7.50
2022-10-19T06:22:05.066Z,7.40
2022-10-19T06:24:31.941Z,7.40
2022-10-19T06:26:58.799Z,7.50
2022-10-19T06:29:26.115Z,7.50
2022-10-19T06:31:54.512Z,7.50
2022-10-19T06:34:21.557Z,7.60
2022-10-19T06:36:48.508Z,7.60
2022-10-19T06:39:15.642Z,7.60
2022-10-19T06:41:42.571Z,7.70
2022-10-19T06:44:18.468Z,7.70
2022-10-19T06:46:46.548Z,7.70
2022-10-19T06:49:14.807Z,7.70
2022-10-19T06:51:41.892Z,7.70
2022-10-19T06:54:08.809Z,7.70
2022-10-19T06:56:36.134Z,7.80
2022-10-19T06:59:03.507Z,7.80
2022-10-19T07:01:30.646Z,7.80
2022-10-19T07:03:57.676Z,7.80
2022-10-19T07:06:26.876Z,7.90
2022-10-19T07:08:53.925Z,7.90
2022-10-19T07:11:22.568Z,7.90
2022-10-19T07:13:50.107Z,8.00
2022-10-19T07:16:21.142Z,8.00
2022-10-19T07:18:52.659Z,8.00
2022-10-19T07:21:21.561Z,8.00
2022-10-19T07:23:48.501Z,8.10
2022-10-19T07:26:26.302Z,8.10
2022-10-19T07:28:55.681Z,8.20
2022-10-19T07:31:24.290Z,8.20
2022-10-19T07:33:56.855Z,8.20
2022-10-19T07:36:25.042Z,8.30
2022-10-19T07:38:52.457Z,8.30
2022-10-19T07:41:21.383Z,8.40
2022-10-19T07:43:49.909Z,8.50
2022-10-19T07:46:19.386Z,8.50
2022-10-19T07:48:46.947Z,8.60
2022-10-19T07:51:16.313Z,8.60
2022-10-19T07:53:44.352Z,8.70
2022-10-19T07:56:16.843Z,8.70
2022-10-19T07:58:44.092Z,8.80
2022-10-19T08:01:18.882Z,8.90
2022-10-19T08:06:34.101Z,9.00
2022-10-19T08:09:01.190Z,9.10
2022-10-19T08:11:33.694Z,9.20
2022-10-19T08:14:02.919Z,9.20
2022-10-19T08:16:41.706Z,9.40
2022-10-19T08:19:11.493Z,9.40
2022-10-19T08:21:40.791Z,9.50
2022-10-19T08:24:08.300Z,9.60
2022-10-19T08:26:38.142Z,9.70
2022-10-19T08:29:19.827Z,9.80
2022-10-19T08:31:48.389Z,9.90
2022-10-19T08:34:16.031Z,10.00
2022-10-19T08:36:44.309Z,10.20
2022-10-19T08:39:15.163Z,10.20
2022-10-19T08:42:06.065Z,10.30
2022-10-19T08:44:38.770Z,10.40
2022-10-19T08:47:38.803Z,10.40
2022-10-19T08:50:29.707Z,10.60
2022-10-19T08:53:06.995Z,10.70
2022-10-19T08:56:26.922Z,10.80
2022-10-19T08:59:26.868Z,10.90
2022-10-19T09:02:07.462Z,11.10
2022-10-19T09:04:44.962Z,11.20
2022-10-19T09:07:28.532Z,11.30
2022-10-19T09:09:55.498Z,11.40
2022-10-19T09:12:45.686Z,11.50
2022-10-19T09:15:16.350Z,11.60
2022-10-19T09:17:43.362Z,11.70
2022-10-19T09:20:20.095Z,11.70
2022-10-19T09:22:54.162Z,11.80
2022-10-19T09:25:23.427Z,11.80
2022-10-19T09:28:36.519Z,11.80
2022-10-19T09:31:13.067Z,11.90
2022-10-19T09:33:40.969Z,11.90
2022-10-19T09:36:10.396Z,11.90
2022-10-19T09:38:39.226Z,12.00
2022-10-19T09:41:19.063Z,12.00
2022-10-19T09:43:53.766Z,12.10
2022-10-19T09:49:15.817Z,12.30
2022-10-19T09:52:01.163Z,12.30
2022-10-19T09:54:39.453Z,12.40
2022-10-19T09:57:06.590Z,12.50
2022-10-19T09:59:36.617Z,12.60
2022-10-19T10:02:17.780Z,12.80
2022-10-19T10:04:58.644Z,12.80
2022-10-19T10:07:33.202Z,12.80
2022-10-19T10:10:00.793Z,12.90
2022-10-19T10:12:28.704Z,13.00
2022-10-19T10:14:56.834Z,13.10
2022-10-19T10:17:31.622Z,13.20
2022-10-19T10:20:01.374Z,13.30
2022-10-19T10:22:30.382Z,13.40
2022-10-19T10:24:57.757Z,13.50
2022-10-19T10:27:37.440Z,13.60
2022-10-19T10:30:09.798Z,13.80
2022-10-19T10:32:48.199Z,13.70
2022-10-19T10:35:31.674Z,13.80
2022-10-19T10:38:14.449Z,13.90
2022-10-19T10:40:49.388Z,13.70
2022-10-19T10:43:19.021Z,13.80
2022-10-19T10:45:53.145Z,14.00
2022-10-19T10:48:25.839Z,14.00
2022-10-19T10:50:53.191Z,14.00
2022-10-19T10:53:46.420Z,14.00
2022-10-19T10:56:41.158Z,14.20
2022-10-19T10:59:21.420Z,14.10
2022-10-19T11:02:20.441Z,14.30
2022-10-19T11:04:54.578Z,14.50
2022-10-19T11:07:24.866Z,14.50
2022-10-19T11:10:14.375Z,14.60
2022-10-19T11:12:51.157Z,14.70
2022-10-19T11:15:55.571Z,14.70
2022-10-19T11:18:34.137Z,14.80
2022-10-19T11:21:12.955Z,14.80
2022-10-19T11:23:49.362Z,15.00
2022-10-19T11:26:53.669Z,14.90
2022-10-19T11:29:50.899Z,14.70
2022-10-19T11:32:48.702Z,14.80
2022-10-19T11:35:25.434Z,14.90
2022-10-19T11:38:29.862Z,15.00
2022-10-19T11:41:17.920Z,15.00
2022-10-19T11:44:21.092Z,15.00
2022-10-19T11:47:08.091Z,15.10
2022-10-19T11:49:53.292Z,15.30
2022-10-19T11:52:51.192Z,15.40
2022-10-19T11:55:29.205Z,15.30
2022-10-19T11:58:20.596Z,15.30
2022-10-19T12:00:57.960Z,15.30
2022-10-19T12:03:59.735Z,15.40
2022-10-19T12:07:13.869Z,15.40
2022-10-19T12:10:10.095Z,15.30
2022-10-19T12:12:53.172Z,15.40
2022-10-19T12:15:48.402Z,15.40
2022-10-19T12:18:24.916Z,15.50
2022-10-19T12:20:56.827Z,15.60
2022-10-19T12:23:37.832Z,15.60
2022-10-19T12:26:10.529Z,15.60
2022-10-19T12:28:43.620Z,15.50
2022-10-19T12:31:11.811Z,15.70
2022-10-19T12:33:46.438Z,15.80
2022-10-19T12:36:25.225Z,15.80
2022-10-19T12:39:00.957Z,15.70
2022-10-19T12:41:48.353Z,15.80
2022-10-19T12:44:57.729Z,16.00
2022-10-19T12:47:26.295Z,16.10
2022-10-19T12:49:55.730Z,16.10
2022-10-19T12:52:48.531Z,16.00
2022-10-19T12:55:38.192Z,16.10
2022-10-19T12:58:24.474Z,16.20
2022-10-19T13:01:03.932Z,16.20
2022-10-19T13:03:34.798Z,16.10
2022-10-19T13:06:10.627Z,16.00
2022-10-19T13:08:55.677Z,16.20
2022-10-19T13:11:26.101Z,16.20
2022-10-19T13:14:05.397Z,16.10
2022-10-19T13:16:32.331Z,16.00
2022-10-19T13:19:13.109Z,16.10
2022-10-19T13:22:07.649Z,16.00
2022-10-19T13:24:36.909Z,16.00
2022-10-19T13:27:26.239Z,16.00
2022-10-19T13:29:53.997Z,16.10
2022-10-19T13:32:45.970Z,16.20
2022-10-19T13:35:34.704Z,16.20
2022-10-19T13:38:17.353Z,16.20
2022-10-19T13:40:51.208Z,16.30
2022-10-19T13:43:28.996Z,16.30
2022-10-19T13:46:08.244Z,16.30
2022-10-19T13:48:37.966Z,16.40
2022-10-19T13:51:29.775Z,16.20
2022-10-19T13:53:59.473Z,16.20
2022-10-19T13:56:40.330Z,16.30
2022-10-19T13:59:07.230Z,16.20
2022-10-19T14:01:46.871Z,16.50
2022-10-19T14:04:38.466Z,16.60
2022-10-19T14:07:12.961Z,16.50
2022-10-19T14:10:18.732Z,16.50
2022-10-19T14:12:46.939Z,16.30
2022-10-19T14:15:28.034Z,16.30
2022-10-19T14:17:56.153Z,16.40
2022-10-19T14:20:30.745Z,16.40
2022-10-19T14:22:58.139Z,16.40
2022-10-19T14:25:28.739Z,16.60
2022-10-19T14:28:17.219Z,16.60
2022-10-19T14:30:46.893Z,16.50
2022-10-19T14:33:17.990Z,16.50
2022-10-19T14:35:50.129Z,16.60
2022-10-19T14:38:43.811Z,16.50
2022-10-19T14:41:30.141Z,16.20
2022-10-19T14:44:00.660Z,16.00
2022-10-19T14:46:33.554Z,16.10
2022-10-19T14:49:06.117Z,15.90
2022-10-19T14:52:07.905Z,15.70
2022-10-19T14:54:43.578Z,15.50
2022-10-19T14:57:26.582Z,15.30
2022-10-19T15:00:01.295Z,15.10
2022-10-19T15:02:39.073Z,15.20
2022-10-19T15:05:19.571Z,15.10
2022-10-19T15:07:46.667Z,15.00
2022-10-19T15:10:24.417Z,14.90
2022-10-19T15:13:01.226Z,14.80
2022-10-19T15:15:33.678Z,14.70
2022-10-19T15:18:01.113Z,14.70
2022-10-19T15:20:30.027Z,14.70
2022-10-19T15:22:58.573Z,14.60
2022-10-19T15:25:32.699Z,14.50
2022-10-19T15:28:31.253Z,14.60
2022-10-19T15:31:06.836Z,14.50
2022-10-19T15:33:43.701Z,14.50
2022-10-19T15:36:19.919Z,14.50
2022-10-19T15:38:50.164Z,14.40
2022-10-19T15:41:31.013Z,14.30
2022-10-19T15:44:01.000Z,14.20
2022-10-19T15:46:52.309Z,14.20
2022-10-19T15:49:19.352Z,14.10
2022-10-19T15:51:50.813Z,14.10
2022-10-19T15:54:19.481Z,14.00
2022-10-19T15:56:50.780Z,14.00
2022-10-19T15:59:21.039Z,14.00
2022-10-19T16:01:53.718Z,14.00
2022-10-19T16:04:22.977Z,13.90
2022-10-19T16:06:52.136Z,13.90
2022-10-19T16:09:21.638Z,13.80
2022-10-19T16:11:49.358Z,13.80
2022-10-19T16:16:44.372Z,13.70
2022-10-19T16:19:11.271Z,13.70
2022-10-19T16:21:38.733Z,13.60
2022-10-19T16:24:06.103Z,13.60
2022-10-19T16:26:33.249Z,13.60
2022-10-19T16:29:01.855Z,13.60
2022-10-19T16:31:28.889Z,13.50
2022-10-19T16:33:55.802Z,13.50
2022-10-19T16:36:22.763Z,13.50
2022-10-19T16:38:49.767Z,13.40
2022-10-19T16:41:18.064Z,13.40
2022-10-19T16:43:45.444Z,13.30
2022-10-19T16:46:12.412Z,13.20
2022-10-19T16:48:39.427Z,13.20
2022-10-19T16:51:06.613Z,13.30
2022-10-19T16:53:37.875Z,13.20
2022-10-19T16:56:10.599Z,13.10
2022-10-19T16:58:38.391Z,13.10
2022-10-19T17:01:08.687Z,13.00
2022-10-19T17:03:36.249Z,13.00
2022-10-19T17:06:07.232Z,12.90
2022-10-19T17:09:02.658Z,12.90
2022-10-19T17:11:25.136Z,13.00
2022-10-19T17:13:54.957Z,13.00
2022-10-19T17:16:23.028Z,12.90
2022-10-19T17:18:52.479Z,12.90
2022-10-19T17:21:22.668Z,12.80
2022-10-19T17:23:58.550Z,12.80
2022-10-19T17:26:34.722Z,12.80
2022-10-19T17:29:06.012Z,12.70
2022-10-19T17:31:33.367Z,12.70
2022-10-19T17:34:01.899Z,12.70
2022-10-19T17:36:37.005Z,12.60
2022-10-19T17:39:08.348Z,12.70
2022-10-19T17:41:35.964Z,12.60
2022-10-19T17:44:05.354Z,12.60
2022-10-19T17:46:34.309Z,12.60
2022-10-19T17:49:01.689Z,12.60
2022-10-19T17:51:30.916Z,12.60
2022-10-19T17:54:03.739Z,12.60
2022-10-19T17:56:32.449Z,12.60
2022-10-19T17:59:02.169Z,12.50
2022-10-19T18:01:29.910Z,12.50
2022-10-19T18:03:57.452Z,12.40
2022-10-19T18:06:31.561Z,12.40
2022-10-19T18:09:04.089Z,12.40
2022-10-19T18:11:38.625Z,12.40
2022-10-19T18:14:08.915Z,12.30
2022-10-19T18:16:43.927Z,12.20
2022-10-19T18:19:11.613Z,12.30
2022-10-19T18:21:41.360Z,12.30
2022-10-19T18:24:15.279Z,12.30
2022-10-19T18:26:43.603Z,12.20
2022-10-19T18:29:16.401Z,12.20
2022-10-19T18:31:43.642Z,12.20
2022-10-19T18:34:26.033Z,12.20
2022-10-19T18:36:54.735Z,12.20
2022-10-19T18:39:22.520Z,12.20
2022-10-19T18:41:56.503Z,12.10
2022-10-19T18:44:27.113Z,12.10
2022-10-19T18:46:57.387Z,12.10
2022-10-19T18:49:29.888Z,12.10
2022-10-19T18:51:57.199Z,12.00
2022-10-19T18:54:27.868Z,12.00
2022-10-19T18:56:55.451Z,12.00
2022-10-19T19:02:00.394Z,12.00
2022-10-19T19:04:28.262Z,11.90
2022-10-19T19:06:57.380Z,11.90
2022-10-19T19:09:26.034Z,11.90
2022-10-19T19:11:55.744Z,11.80
2022-10-19T19:14:23.339Z,11.90
2022-10-19T19:16:56.593Z,11.80
2022-10-19T19:19:25.789Z,11.80
2022-10-19T19:21:52.874Z,11.80
2022-10-19T19:24:22.568Z,11.80
2022-10-19T19:26:59.740Z,11.80
2022-10-19T19:29:28.167Z,11.80
2022-10-19T19:32:01.641Z,11.80
2022-10-19T19:34:28.971Z,11.70
2022-10-19T19:36:56.533Z,11.70
2022-10-19T19:39:23.765Z,11.70
2022-10-19T19:41:52.675Z,11.70
2022-10-19T19:44:19.586Z,11.60
2022-10-19T19:46:47.079Z,11.60
2022-10-19T19:49:14.853Z,11.60
2022-10-19T19:51:41.958Z,11.60
2022-10-19T19:54:13.578Z,11.50
2022-10-19T19:56:46.467Z,11.50
2022-10-19T19:59:15.253Z,11.50
2022-10-19T20:01:42.711Z,11.50
2022-10-19T20:04:12.187Z,11.50
2022-10-19T20:06:41.211Z,11.50
2022-10-19T20:09:10.947Z,11.50
2022-10-19T20:11:42.609Z,11.50
2022-10-19T20:14:10.448Z,11.40
2022-10-19T20:16:37.849Z,11.40
2022-10-19T20:19:11.651Z,11.40
2022-10-19T20:21:39.033Z,11.40
2022-10-19T20:24:08.146Z,11.50
2022-10-19T20:26:35.447Z,11.40
2022-10-19T20:29:04.232Z,11.40
2022-10-19T20:31:33.543Z,11.40
2022-10-19T20:34:01.005Z,11.40
2022-10-19T20:36:28.233Z,11.30
2022-10-19T20:38:57.925Z,11.30
2022-10-19T20:41:27.132Z,11.30
2022-10-19T20:43:56.473Z,11.30
2022-10-19T20:46:28.900Z,11.20
2022-10-19T20:48:58.055Z,11.30
2022-10-19T20:51:31.765Z,11.20
2022-10-19T20:54:01.462Z,11.20
2022-10-19T20:56:37.843Z,11.20
2022-10-19T20:59:11.518Z,11.10
2022-10-19T21:01:40.622Z,11.10
2022-10-19T21:04:10.549Z,11.10
2022-10-19T21:06:43.213Z,11.10
2022-10-19T21:09:23.657Z,11.10
2022-10-19T21:11:53.606Z,11.10
2022-10-19T21:14:26.978Z,11.10
2022-10-19T21:16:57.471Z,11.10
2022-10-19T21:19:27.395Z,11.10
2022-10-19T21:21:56.981Z,11.10
2022-10-19T21:24:29.714Z,11.10
2022-10-19T21:26:58.192Z,11.00
2022-10-19T21:29:25.151Z,11.00
2022-10-19T21:31:53.277Z,11.00
2022-10-19T21:34:25.648Z,11.00
2022-10-19T21:36:53.786Z,11.00
2022-10-19T21:39:20.799Z,11.00
2022-10-19T21:41:50.286Z,11.00
2022-10-19T21:44:18.334Z,10.90
2022-10-19T21:46:47.996Z,10.90
2022-10-19T21:49:18.394Z,10.90
2022-10-19T21:51:48.962Z,10.90
2022-10-19T21:54:19.176Z,10.90
2022-10-19T21:56:47.232Z,10.90
2022-10-19T21:59:16.610Z,10.90
2022-10-19T22:01:45.552Z,10.90
2022-10-19T22:04:15.408Z,10.90
2022-10-19T22:06:44.351Z,10.90
2022-10-19T22:09:14.872Z,10.90
2022-10-19T22:11:42.231Z,10.80
2022-10-19T22:14:11.720Z,10.80
2022-10-19T22:16:40.073Z,10.80
2022-10-19T22:19:07.338Z,10.80
2022-10-19T22:21:35.319Z,10.80
2022-10-19T22:24:05.501Z,10.80
2022-10-19T22:26:36.701Z,10.80
2022-10-19T22:29:05.367Z,10.80
2022-10-19T22:31:32.735Z,10.80
2022-10-19T22:34:06.422Z,10.80
2022-10-19T22:36:33.577Z,10.80
2022-10-19T22:39:00.543Z,10.80
2022-10-19T22:42:23.872Z,10.80
2022-10-19T22:45:09.825Z,10.80
2022-10-19T22:47:36.731Z,10.80
2022-10-19T22:50:03.993Z,10.80
2022-10-19T22:52:30.852Z,10.80
2022-10-19T22:54:58.131Z,10.80
2022-10-19T22:57:25.146Z,10.80
2022-10-19T22:59:52.142Z,10.80
2022-10-19T23:02:19.007Z,10.70
2022-10-19T23:04:45.999Z,10.70
2022-10-19T23:07:13.101Z,10.70
2022-10-19T23:09:40.151Z,10.70
2022-10-19T23:12:07.081Z,10.60
2022-10-19T23:14:33.924Z,10.70
2022-10-19T23:17:00.960Z,10.60
2022-10-19T23:19:27.985Z,10.60
2022-10-19T23:21:56.097Z,10.60
2022-10-19T23:24:23.113Z,10.60
2022-10-19T23:26:50.071Z,10.50
2022-10-19T23:29:16.915Z,10.60
2022-10-19T23:31:43.864Z,10.60
2022-10-19T23:34:11.979Z,10.50
2022-10-19T23:36:38.895Z,10.50
2022-10-19T23:39:06.614Z,10.50
2022-10-19T23:41:33.695Z,10.50
2022-10-19T23:44:00.702Z,10.60
2022-10-19T23:46:27.576Z,10.50
2022-10-19T23:48:54.633Z,10.50
2022-10-19T23:51:22.597Z,10.40
2022-10-19T23:53:51.438Z,10.40
2022-10-19T23:56:21.040Z,10.40
2022-10-19T23:58:48.276Z,10.30
